Montrose, AR (71658)

8:42 AM CDT on October 31, 2014 (GMT -0500)
Hwy 172 | Change Station
CLOSE
Current Station
Personal Weather Station
Location: Monticello, AR
Elevation: 246 ft
Nearby Weather Stations
Active Advisory: Freeze Watch

Elev 246 ft 33.55 °N, 91.82 °W | Updated 12 minutes ago

Clear
Clear
47.7 °F
Feels Like 48 °F
N
0.0
Wind Variable Wind from South
Gusts 0.0 mph

Today
High -- | Low -- °F
--% Chance of Precip.
Yesterday
High -- | Low -- °F
Precip. -- in
7:23 AM 6:15 PM
First Quarter, 55% visible
Pressure 30.10 in
Visibility 10.0 miles
Clouds Clear
Windchill 48 °F
Dew Point 36 °F
Humidity 64%
Rainfall 0.00 in
Snow Depth Not available.
UV 0 out of 12
Pollen 2.30 out of 12
Air Quality Not available.
Flu Activity Not available.
METAR KLLQ 311253Z AUTO 32007KT 10SM CLR 11/07 A3010 RMK AO2 SLP191 T01110067

More Conditions Fewer Conditions

Pressure 30.10 in
Visibility 10.0 miles
Clouds Clear
Windchill 48 °F
Dew Point 36 °F
Humidity 64%
Rainfall 0.00 in
Snow Depth Not available.
UV 0 out of 12
Pollen 2.30 out of 12
Air Quality Not available.
Flu Activity Not available.
METAR KLLQ 311253Z AUTO 32007KT 10SM CLR 11/07 A3010 RMK AO2 SLP191 T01110067

More Conditions Fewer Conditions

10-Day Weather Forecast

Almanac

Astronomy

Oct. 31, 2014 Rise Set
Actual Time
Civil Twilight
Nautical Twilight
Astronomical Twilight
Moon
Length of Visible Light
Length of Day
Tomorrow will be .
, % of the Moon is Illuminated

Today's Extremes

State Highs State Lows

Community

WunderPhotos

Upload Photos

1,766,612 photos uploaded!

WunderBlogs® & News

Nearby

Air Quality

  Air Quality AQ Index Pollutant
Not available.

Snow Depth

Station Depth Elevation

Earthquake Activity

City Distance Mag. Time & Date
Minimum magnitude displayed is 2.5.

Coastal Water Temperatures

Place Temperature

Nearby Weather Stations